< < Back
Terminal Aerodrome Forecast


Current Version              Previous Versions:   1  2  3  4  5  6  7  8  9  

Terminal Aerodrome Forecast

508
FTUS44 KBMX 032000 AAA
TAFTCL
TAF AMD
KTCL 032054Z 0321/0418 19004KT 6SM HZ BKN025
     FM040600 19006KT 4SM BR OVC004
     FM040800 18005KT 1SM BR OVC002=



Latest METAR

875
SAUS70 KWBC 032200 RRJ
MTRTCL
METAR KTCL 032153Z 20005KT 10SM FEW041 SCT048 BKN060 22/18 A3002 RMK AO2
SLP165 T02220183


USA.gov is the U.S. government's official web portal to all federal, state and local government web resources and services.